sensor_id;sensor_type;location;lat;lon;timestamp;P1;durP1;ratioP1;P2;durP2;ratioP2
46931;SDS011;32670;51.464;11.964;2023-02-07T00:00:10;2.30;;;1.47;;
46931;SDS011;32670;51.464;11.964;2023-02-07T00:02:42;4.17;;;1.27;;
46931;SDS011;32670;51.464;11.964;2023-02-07T00:05:08;1.40;;;1.30;;
46931;SDS011;32670;51.464;11.964;2023-02-07T00:07:34;2.13;;;1.30;;
46931;SDS011;32670;51.464;11.964;2023-02-07T00:09:59;1.20;;;1.10;;
46931;SDS011;32670;51.464;11.964;2023-02-07T00:12:25;1.63;;;1.10;;
46931;SDS011;32670;51.464;11.964;2023-02-07T00:14:50;1.83;;;1.30;;
46931;SDS011;32670;51.464;11.964;2023-02-07T00:17:16;1.30;;;1.20;;
46931;SDS011;32670;51.464;11.964;2023-02-07T00:19:41;1.13;;;1.10;;
46931;SDS011;32670;51.464;11.964;2023-02-07T00:22:07;2.27;;;1.40;;
46931;SDS011;32670;51.464;11.964;2023-02-07T00:24:32;1.43;;;1.20;;
46931;SDS011;32670;51.464;11.964;2023-02-07T00:26:58;3.03;;;1.17;;
46931;SDS011;32670;51.464;11.964;2023-02-07T00:29:23;2.67;;;1.27;;
46931;SDS011;32670;51.464;11.964;2023-02-07T00:31:49;2.33;;;1.40;;
46931;SDS011;32670;51.464;11.964;2023-02-07T00:34:14;3.67;;;1.20;;
46931;SDS011;32670;51.464;11.964;2023-02-07T00:36:40;1.20;;;1.10;;
46931;SDS011;32670;51.464;11.964;2023-02-07T00:39:12;2.13;;;1.30;;
46931;SDS011;32670;51.464;11.964;2023-02-07T00:41:39;2.03;;;1.10;;
46931;SDS011;32670;51.464;11.964;2023-02-07T00:44:05;1.30;;;1.20;;
46931;SDS011;32670;51.464;11.964;2023-02-07T00:46:31;2.87;;;1.63;;
46931;SDS011;32670;51.464;11.964;2023-02-07T00:48:58;1.50;;;1.40;;
46931;SDS011;32670;51.464;11.964;2023-02-07T00:51:23;1.93;;;1.37;;
46931;SDS011;32670;51.464;11.964;2023-02-07T00:53:52;1.80;;;1.40;;
46931;SDS011;32670;51.464;11.964;2023-02-07T00:56:19;1.43;;;1.33;;
46931;SDS011;32670;51.464;11.964;2023-02-07T00:58:45;4.20;;;2.00;;
46931;SDS011;32670;51.464;11.964;2023-02-07T01:01:11;11.60;;;2.43;;
46931;SDS011;32670;51.464;11.964;2023-02-07T01:03:37;3.20;;;1.50;;
46931;SDS011;32670;51.464;11.964;2023-02-07T01:06:03;3.93;;;1.83;;
46931;SDS011;32670;51.464;11.964;2023-02-07T01:08:29;4.57;;;1.90;;
46931;SDS011;32670;51.464;11.964;2023-02-07T01:10:54;2.13;;;1.60;;
46931;SDS011;32670;51.464;11.964;2023-02-07T01:13:20;2.90;;;1.80;;
46931;SDS011;32670;51.464;11.964;2023-02-07T01:15:46;2.80;;;2.03;;
46931;SDS011;32670;51.464;11.964;2023-02-07T01:18:12;2.73;;;1.90;;
46931;SDS011;32670;51.464;11.964;2023-02-07T01:20:38;4.70;;;2.10;;
46931;SDS011;32670;51.464;11.964;2023-02-07T01:23:04;2.77;;;1.80;;
46931;SDS011;32670;51.464;11.964;2023-02-07T01:25:29;2.73;;;1.50;;
46931;SDS011;32670;51.464;11.964;2023-02-07T01:27:55;3.57;;;1.60;;
46931;SDS011;32670;51.464;11.964;2023-02-07T01:30:21;6.60;;;1.87;;
46931;SDS011;32670;51.464;11.964;2023-02-07T01:32:47;2.93;;;1.90;;
46931;SDS011;32670;51.464;11.964;2023-02-07T01:35:13;2.27;;;1.80;;
46931;SDS011;32670;51.464;11.964;2023-02-07T01:37:38;3.50;;;2.00;;
46931;SDS011;32670;51.464;11.964;2023-02-07T01:40:04;1.93;;;1.70;;
46931;SDS011;32670;51.464;11.964;2023-02-07T01:42:29;2.90;;;1.63;;
46931;SDS011;32670;51.464;11.964;2023-02-07T01:44:57;3.00;;;1.87;;
46931;SDS011;32670;51.464;11.964;2023-02-07T01:47:28;1.77;;;1.57;;
46931;SDS011;32670;51.464;11.964;2023-02-07T01:49:55;1.93;;;1.30;;
46931;SDS011;32670;51.464;11.964;2023-02-07T01:52:23;3.63;;;1.60;;
46931;SDS011;32670;51.464;11.964;2023-02-07T01:54:54;2.83;;;1.67;;
46931;SDS011;32670;51.464;11.964;2023-02-07T01:57:23;1.63;;;1.50;;
46931;SDS011;32670;51.464;11.964;2023-02-07T01:59:50;2.57;;;1.53;;
46931;SDS011;32670;51.464;11.964;2023-02-07T02:02:18;2.80;;;1.53;;
46931;SDS011;32670;51.464;11.964;2023-02-07T02:04:45;1.90;;;1.70;;
46931;SDS011;32670;51.464;11.964;2023-02-07T02:07:12;2.20;;;1.70;;
46931;SDS011;32670;51.464;11.964;2023-02-07T02:09:39;2.80;;;1.47;;
46931;SDS011;32670;51.464;11.964;2023-02-07T02:17:32;3.17;;;2.83;;
46931;SDS011;32670;51.464;11.964;2023-02-07T02:26:13;2.33;;;2.00;;
46931;SDS011;32670;51.464;11.964;2023-02-07T02:32:20;3.87;;;2.67;;
46931;SDS011;32670;51.464;11.964;2023-02-07T02:34:43;7.33;;;2.70;;
46931;SDS011;32670;51.464;11.964;2023-02-07T02:42:59;6.87;;;2.60;;
46931;SDS011;32670;51.464;11.964;2023-02-07T02:45:37;4.40;;;2.80;;
46931;SDS011;32670;51.464;11.964;2023-02-07T02:48:07;5.23;;;2.47;;
46931;SDS011;32670;51.464;11.964;2023-02-07T02:50:35;4.07;;;2.30;;
46931;SDS011;32670;51.464;11.964;2023-02-07T02:53:01;3.60;;;2.20;;
46931;SDS011;32670;51.464;11.964;2023-02-07T02:58:19;3.63;;;2.13;;
46931;SDS011;32670;51.464;11.964;2023-02-07T03:01:01;5.40;;;2.50;;
46931;SDS011;32670;51.464;11.964;2023-02-07T03:03:56;7.27;;;2.30;;
46931;SDS011;32670;51.464;11.964;2023-02-07T03:06:36;5.67;;;2.50;;
46931;SDS011;32670;51.464;11.964;2023-02-07T03:09:25;3.20;;;2.20;;
46931;SDS011;32670;51.464;11.964;2023-02-07T03:15:04;5.03;;;2.50;;
46931;SDS011;32670;51.464;11.964;2023-02-07T03:17:44;5.13;;;2.33;;
46931;SDS011;32670;51.464;11.964;2023-02-07T03:20:34;2.87;;;2.00;;
46931;SDS011;32670;51.464;11.964;2023-02-07T03:23:05;3.63;;;2.10;;
46931;SDS011;32670;51.464;11.964;2023-02-07T03:25:33;2.87;;;2.07;;
46931;SDS011;32670;51.464;11.964;2023-02-07T03:28:01;4.27;;;2.30;;
46931;SDS011;32670;51.464;11.964;2023-02-07T03:30:29;4.13;;;2.17;;
46931;SDS011;32670;51.464;11.964;2023-02-07T03:32:57;3.83;;;2.17;;
46931;SDS011;32670;51.464;11.964;2023-02-07T03:35:59;9.37;;;2.20;;
46931;SDS011;32670;51.464;11.964;2023-02-07T03:38:24;3.43;;;2.30;;
46931;SDS011;32670;51.464;11.964;2023-02-07T03:40:55;3.20;;;2.43;;
46931;SDS011;32670;51.464;11.964;2023-02-07T03:43:26;3.33;;;2.27;;
46931;SDS011;32670;51.464;11.964;2023-02-07T03:45:54;3.47;;;1.97;;
46931;SDS011;32670;51.464;11.964;2023-02-07T03:48:20;3.00;;;2.30;;
46931;SDS011;32670;51.464;11.964;2023-02-07T03:50:45;3.17;;;2.17;;
46931;SDS011;32670;51.464;11.964;2023-02-07T03:53:14;2.23;;;1.90;;
46931;SDS011;32670;51.464;11.964;2023-02-07T03:55:39;4.23;;;2.33;;
46931;SDS011;32670;51.464;11.964;2023-02-07T03:58:05;2.90;;;1.83;;
46931;SDS011;32670;51.464;11.964;2023-02-07T04:00:32;2.07;;;1.87;;
46931;SDS011;32670;51.464;11.964;2023-02-07T04:02:58;2.80;;;2.10;;
46931;SDS011;32670;51.464;11.964;2023-02-07T04:05:23;3.17;;;2.00;;
46931;SDS011;32670;51.464;11.964;2023-02-07T04:07:49;4.20;;;2.50;;
46931;SDS011;32670;51.464;11.964;2023-02-07T04:10:15;2.90;;;1.90;;
46931;SDS011;32670;51.464;11.964;2023-02-07T04:12:40;4.53;;;2.10;;
46931;SDS011;32670;51.464;11.964;2023-02-07T04:15:06;2.73;;;1.93;;
46931;SDS011;32670;51.464;11.964;2023-02-07T04:17:32;4.07;;;2.30;;
46931;SDS011;32670;51.464;11.964;2023-02-07T04:19:59;2.43;;;1.77;;
46931;SDS011;32670;51.464;11.964;2023-02-07T04:22:25;1.77;;;1.63;;
46931;SDS011;32670;51.464;11.964;2023-02-07T04:24:51;2.83;;;2.07;;
46931;SDS011;32670;51.464;11.964;2023-02-07T04:27:16;2.60;;;1.87;;
46931;SDS011;32670;51.464;11.964;2023-02-07T04:29:42;1.77;;;1.60;;
46931;SDS011;32670;51.464;11.964;2023-02-07T04:32:07;3.60;;;1.97;;
46931;SDS011;32670;51.464;11.964;2023-02-07T04:34:33;2.53;;;1.90;;
46931;SDS011;32670;51.464;11.964;2023-02-07T04:36:58;3.07;;;2.00;;
46931;SDS011;32670;51.464;11.964;2023-02-07T04:39:24;3.33;;;2.07;;
46931;SDS011;32670;51.464;11.964;2023-02-07T04:41:49;4.13;;;1.93;;
46931;SDS011;32670;51.464;11.964;2023-02-07T04:44:15;2.70;;;2.10;;
46931;SDS011;32670;51.464;11.964;2023-02-07T04:46:40;2.40;;;2.07;;
46931;SDS011;32670;51.464;11.964;2023-02-07T04:49:06;2.23;;;1.80;;
46931;SDS011;32670;51.464;11.964;2023-02-07T04:51:31;6.67;;;1.80;;
46931;SDS011;32670;51.464;11.964;2023-02-07T04:53:57;2.03;;;1.80;;
46931;SDS011;32670;51.464;11.964;2023-02-07T04:56:22;2.67;;;1.60;;
46931;SDS011;32670;51.464;11.964;2023-02-07T04:58:48;3.60;;;1.90;;
46931;SDS011;32670;51.464;11.964;2023-02-07T05:01:13;2.33;;;1.87;;
46931;SDS011;32670;51.464;11.964;2023-02-07T05:03:39;3.10;;;1.80;;
46931;SDS011;32670;51.464;11.964;2023-02-07T05:06:04;2.77;;;1.87;;
46931;SDS011;32670;51.464;11.964;2023-02-07T05:08:30;2.77;;;1.70;;
46931;SDS011;32670;51.464;11.964;2023-02-07T05:10:56;5.10;;;1.77;;
46931;SDS011;32670;51.464;11.964;2023-02-07T05:13:22;2.43;;;1.73;;
46931;SDS011;32670;51.464;11.964;2023-02-07T05:15:48;3.10;;;2.10;;
46931;SDS011;32670;51.464;11.964;2023-02-07T05:18:14;2.23;;;1.70;;
46931;SDS011;32670;51.464;11.964;2023-02-07T05:20:39;2.33;;;1.60;;
46931;SDS011;32670;51.464;11.964;2023-02-07T05:23:05;2.97;;;1.60;;
46931;SDS011;32670;51.464;11.964;2023-02-07T05:25:30;2.63;;;1.70;;
46931;SDS011;32670;51.464;11.964;2023-02-07T05:27:56;4.80;;;2.00;;
46931;SDS011;32670;51.464;11.964;2023-02-07T05:30:21;2.50;;;1.90;;
46931;SDS011;32670;51.464;11.964;2023-02-07T05:32:47;1.70;;;1.60;;
46931;SDS011;32670;51.464;11.964;2023-02-07T05:35:28;3.03;;;1.60;;
46931;SDS011;32670;51.464;11.964;2023-02-07T05:37:54;3.73;;;1.87;;
46931;SDS011;32670;51.464;11.964;2023-02-07T05:40:20;3.37;;;1.80;;
46931;SDS011;32670;51.464;11.964;2023-02-07T05:42:46;2.63;;;2.33;;
46931;SDS011;32670;51.464;11.964;2023-02-07T05:45:11;3.13;;;2.57;;
46931;SDS011;32670;51.464;11.964;2023-02-07T05:47:37;3.87;;;2.13;;
46931;SDS011;32670;51.464;11.964;2023-02-07T05:50:02;3.93;;;2.13;;
46931;SDS011;32670;51.464;11.964;2023-02-07T05:52:28;6.40;;;1.90;;
46931;SDS011;32670;51.464;11.964;2023-02-07T05:54:54;2.17;;;1.97;;
46931;SDS011;32670;51.464;11.964;2023-02-07T05:57:19;5.17;;;2.00;;
46931;SDS011;32670;51.464;11.964;2023-02-07T05:59:44;6.33;;;2.20;;
46931;SDS011;32670;51.464;11.964;2023-02-07T06:02:10;2.23;;;1.97;;
46931;SDS011;32670;51.464;11.964;2023-02-07T06:04:35;7.33;;;2.70;;
46931;SDS011;32670;51.464;11.964;2023-02-07T06:07:01;3.57;;;2.20;;
46931;SDS011;32670;51.464;11.964;2023-02-07T06:09:26;4.60;;;2.33;;
46931;SDS011;32670;51.464;11.964;2023-02-07T06:11:52;3.47;;;2.20;;
46931;SDS011;32670;51.464;11.964;2023-02-07T06:14:19;3.10;;;2.00;;
46931;SDS011;32670;51.464;11.964;2023-02-07T06:16:45;4.43;;;2.30;;
46931;SDS011;32670;51.464;11.964;2023-02-07T06:19:11;3.10;;;2.00;;
46931;SDS011;32670;51.464;11.964;2023-02-07T06:21:37;4.93;;;2.20;;
46931;SDS011;32670;51.464;11.964;2023-02-07T06:24:02;3.30;;;2.20;;
46931;SDS011;32670;51.464;11.964;2023-02-07T06:26:28;3.77;;;2.23;;
46931;SDS011;32670;51.464;11.964;2023-02-07T06:28:54;6.63;;;2.00;;
46931;SDS011;32670;51.464;11.964;2023-02-07T06:31:19;2.47;;;1.93;;
46931;SDS011;32670;51.464;11.964;2023-02-07T06:33:45;4.70;;;2.00;;
46931;SDS011;32670;51.464;11.964;2023-02-07T06:36:10;3.97;;;2.23;;
46931;SDS011;32670;51.464;11.964;2023-02-07T06:38:36;3.17;;;2.13;;
46931;SDS011;32670;51.464;11.964;2023-02-07T06:41:01;4.23;;;2.27;;
46931;SDS011;32670;51.464;11.964;2023-02-07T06:43:26;2.83;;;2.00;;
46931;SDS011;32670;51.464;11.964;2023-02-07T06:45:52;3.77;;;2.00;;
46931;SDS011;32670;51.464;11.964;2023-02-07T06:48:17;2.17;;;1.77;;
46931;SDS011;32670;51.464;11.964;2023-02-07T06:50:43;2.97;;;2.00;;
46931;SDS011;32670;51.464;11.964;2023-02-07T06:53:08;3.03;;;1.90;;
46931;SDS011;32670;51.464;11.964;2023-02-07T06:55:38;4.13;;;2.23;;
46931;SDS011;32670;51.464;11.964;2023-02-07T06:58:04;3.90;;;2.40;;
46931;SDS011;32670;51.464;11.964;2023-02-07T07:00:31;6.40;;;2.10;;
46931;SDS011;32670;51.464;11.964;2023-02-07T07:02:56;2.63;;;2.03;;
46931;SDS011;32670;51.464;11.964;2023-02-07T07:05:23;8.63;;;2.37;;
46931;SDS011;32670;51.464;11.964;2023-02-07T07:07:50;4.77;;;2.00;;
46931;SDS011;32670;51.464;11.964;2023-02-07T07:10:15;5.23;;;2.43;;
46931;SDS011;32670;51.464;11.964;2023-02-07T07:12:41;5.00;;;2.90;;
46931;SDS011;32670;51.464;11.964;2023-02-07T07:15:06;7.10;;;2.53;;
46931;SDS011;32670;51.464;11.964;2023-02-07T07:17:32;22.73;;;20.33;;
46931;SDS011;32670;51.464;11.964;2023-02-07T07:19:57;26.03;;;23.33;;
46931;SDS011;32670;51.464;11.964;2023-02-07T07:22:23;29.30;;;26.30;;
46931;SDS011;32670;51.464;11.964;2023-02-07T07:24:49;29.73;;;26.53;;
46931;SDS011;32670;51.464;11.964;2023-02-07T07:27:15;29.23;;;26.13;;
46931;SDS011;32670;51.464;11.964;2023-02-07T07:29:40;31.23;;;27.93;;
46931;SDS011;32670;51.464;11.964;2023-02-07T07:32:06;31.03;;;27.90;;
46931;SDS011;32670;51.464;11.964;2023-02-07T07:34:31;29.73;;;26.63;;
46931;SDS011;32670;51.464;11.964;2023-02-07T07:36:57;31.00;;;27.70;;
46931;SDS011;32670;51.464;11.964;2023-02-07T07:39:23;30.63;;;27.43;;
46931;SDS011;32670;51.464;11.964;2023-02-07T07:41:49;31.33;;;28.10;;
46931;SDS011;32670;51.464;11.964;2023-02-07T07:44:14;32.20;;;28.70;;
46931;SDS011;32670;51.464;11.964;2023-02-07T07:46:40;32.20;;;28.80;;
46931;SDS011;32670;51.464;11.964;2023-02-07T07:49:05;31.57;;;28.27;;
46931;SDS011;32670;51.464;11.964;2023-02-07T07:51:31;29.93;;;26.83;;
46931;SDS011;32670;51.464;11.964;2023-02-07T07:53:56;28.93;;;25.93;;
46931;SDS011;32670;51.464;11.964;2023-02-07T07:56:22;27.37;;;24.57;;
46931;SDS011;32670;51.464;11.964;2023-02-07T07:58:47;27.00;;;24.10;;
46931;SDS011;32670;51.464;11.964;2023-02-07T08:01:13;28.27;;;25.37;;
46931;SDS011;32670;51.464;11.964;2023-02-07T08:03:39;28.43;;;25.43;;
46931;SDS011;32670;51.464;11.964;2023-02-07T08:06:04;27.60;;;24.70;;
46931;SDS011;32670;51.464;11.964;2023-02-07T08:08:30;27.13;;;24.20;;
46931;SDS011;32670;51.464;11.964;2023-02-07T08:10:59;25.13;;;22.53;;
46931;SDS011;32670;51.464;11.964;2023-02-07T08:13:26;23.40;;;21.00;;
46931;SDS011;32670;51.464;11.964;2023-02-07T08:15:51;23.47;;;20.97;;
46931;SDS011;32670;51.464;11.964;2023-02-07T08:18:17;23.70;;;19.97;;
46931;SDS011;32670;51.464;11.964;2023-02-07T08:20:42;33.40;;;20.70;;
46931;SDS011;32670;51.464;11.964;2023-02-07T08:23:08;31.17;;;18.83;;
46931;SDS011;32670;51.464;11.964;2023-02-07T08:25:33;29.27;;;19.40;;
46931;SDS011;32670;51.464;11.964;2023-02-07T08:27:59;23.90;;;19.40;;
46931;SDS011;32670;51.464;11.964;2023-02-07T08:30:24;28.07;;;17.87;;
46931;SDS011;32670;51.464;11.964;2023-02-07T08:32:50;21.13;;;16.63;;
46931;SDS011;32670;51.464;11.964;2023-02-07T08:35:16;22.40;;;17.00;;
46931;SDS011;32670;51.464;11.964;2023-02-07T08:37:42;18.13;;;16.23;;
46931;SDS011;32670;51.464;11.964;2023-02-07T08:40:08;20.47;;;17.33;;
46931;SDS011;32670;51.464;11.964;2023-02-07T08:42:34;20.10;;;16.80;;
46931;SDS011;32670;51.464;11.964;2023-02-07T08:44:59;21.37;;;16.13;;
46931;SDS011;32670;51.464;11.964;2023-02-07T08:47:25;18.50;;;15.43;;
46931;SDS011;32670;51.464;11.964;2023-02-07T08:49:50;19.23;;;16.33;;
46931;SDS011;32670;51.464;11.964;2023-02-07T08:52:16;21.93;;;15.77;;
46931;SDS011;32670;51.464;11.964;2023-02-07T08:54:41;17.90;;;16.00;;
46931;SDS011;32670;51.464;11.964;2023-02-07T08:57:06;16.83;;;15.03;;
46931;SDS011;32670;51.464;11.964;2023-02-07T08:59:32;20.43;;;14.97;;
46931;SDS011;32670;51.464;11.964;2023-02-07T09:01:57;17.73;;;14.57;;
46931;SDS011;32670;51.464;11.964;2023-02-07T09:04:23;15.83;;;14.20;;
46931;SDS011;32670;51.464;11.964;2023-02-07T09:06:48;17.10;;;14.57;;
46931;SDS011;32670;51.464;11.964;2023-02-07T09:09:14;15.40;;;13.87;;
46931;SDS011;32670;51.464;11.964;2023-02-07T09:11:39;15.90;;;14.17;;
46931;SDS011;32670;51.464;11.964;2023-02-07T09:14:05;17.87;;;14.50;;
46931;SDS011;32670;51.464;11.964;2023-02-07T09:16:30;15.60;;;13.97;;
46931;SDS011;32670;51.464;11.964;2023-02-07T09:18:56;15.30;;;13.80;;
46931;SDS011;32670;51.464;11.964;2023-02-07T09:21:22;14.77;;;13.27;;
46931;SDS011;32670;51.464;11.964;2023-02-07T09:23:47;15.33;;;13.83;;
46931;SDS011;32670;51.464;11.964;2023-02-07T09:26:17;15.40;;;13.80;;
46931;SDS011;32670;51.464;11.964;2023-02-07T09:28:44;14.97;;;13.40;;
46931;SDS011;32670;51.464;11.964;2023-02-07T09:31:10;14.47;;;12.97;;
46931;SDS011;32670;51.464;11.964;2023-02-07T09:33:37;15.03;;;13.47;;
46931;SDS011;32670;51.464;11.964;2023-02-07T09:36:03;15.03;;;13.13;;
46931;SDS011;32670;51.464;11.964;2023-02-07T09:38:29;13.87;;;12.30;;
46931;SDS011;32670;51.464;11.964;2023-02-07T09:40:54;15.33;;;13.47;;
46931;SDS011;32670;51.464;11.964;2023-02-07T09:43:33;14.53;;;12.97;;
46931;SDS011;32670;51.464;11.964;2023-02-07T09:46:09;14.87;;;12.33;;
46931;SDS011;32670;51.464;11.964;2023-02-07T09:48:47;14.03;;;12.53;;
46931;SDS011;32670;51.464;11.964;2023-02-07T09:51:19;14.83;;;12.43;;
46931;SDS011;32670;51.464;11.964;2023-02-07T09:53:52;13.77;;;12.37;;
46931;SDS011;32670;51.464;11.964;2023-02-07T09:56:39;13.57;;;12.27;;
46931;SDS011;32670;51.464;11.964;2023-02-07T09:59:17;13.50;;;12.20;;
46931;SDS011;32670;51.464;11.964;2023-02-07T10:01:49;17.43;;;12.43;;
46931;SDS011;32670;51.464;11.964;2023-02-07T10:06:53;12.80;;;11.50;;
46931;SDS011;32670;51.464;11.964;2023-02-07T10:09:23;16.00;;;12.00;;
46931;SDS011;32670;51.464;11.964;2023-02-07T10:11:55;13.03;;;11.53;;
46931;SDS011;32670;51.464;11.964;2023-02-07T10:14:55;14.77;;;11.87;;
46931;SDS011;32670;51.464;11.964;2023-02-07T10:17:45;14.17;;;12.70;;
46931;SDS011;32670;51.464;11.964;2023-02-07T10:22:46;12.43;;;11.13;;
46931;SDS011;32670;51.464;11.964;2023-02-07T10:25:39;13.33;;;11.90;;
46931;SDS011;32670;51.464;11.964;2023-02-07T10:30:46;13.30;;;11.90;;
46931;SDS011;32670;51.464;11.964;2023-02-07T10:35:43;12.43;;;11.23;;
46931;SDS011;32670;51.464;11.964;2023-02-07T10:38:20;12.37;;;11.07;;
46931;SDS011;32670;51.464;11.964;2023-02-07T10:40:56;13.03;;;11.73;;
46931;SDS011;32670;51.464;11.964;2023-02-07T10:43:27;11.90;;;10.80;;
46931;SDS011;32670;51.464;11.964;2023-02-07T10:45:58;11.57;;;10.33;;
46931;SDS011;32670;51.464;11.964;2023-02-07T10:48:33;11.60;;;10.50;;
46931;SDS011;32670;51.464;11.964;2023-02-07T10:50:59;11.83;;;10.67;;
46931;SDS011;32670;51.464;11.964;2023-02-07T10:53:43;11.80;;;10.60;;
46931;SDS011;32670;51.464;11.964;2023-02-07T10:56:17;12.23;;;10.93;;
46931;SDS011;32670;51.464;11.964;2023-02-07T10:58:45;11.63;;;10.53;;
46931;SDS011;32670;51.464;11.964;2023-02-07T11:01:18;12.27;;;11.07;;
46931;SDS011;32670;51.464;11.964;2023-02-07T11:03:48;12.17;;;10.90;;
46931;SDS011;32670;51.464;11.964;2023-02-07T11:06:15;11.30;;;10.17;;
46931;SDS011;32670;51.464;11.964;2023-02-07T11:08:48;11.53;;;10.33;;
46931;SDS011;32670;51.464;11.964;2023-02-07T11:14:00;11.10;;;10.07;;
46931;SDS011;32670;51.464;11.964;2023-02-07T11:16:28;11.13;;;10.03;;
46931;SDS011;32670;51.464;11.964;2023-02-07T11:19:01;11.67;;;10.50;;
46931;SDS011;32670;51.464;11.964;2023-02-07T11:24:07;11.17;;;10.07;;
46931;SDS011;32670;51.464;11.964;2023-02-07T11:27:01;11.73;;;10.63;;
46931;SDS011;32670;51.464;11.964;2023-02-07T11:29:30;11.27;;;10.27;;
46931;SDS011;32670;51.464;11.964;2023-02-07T11:32:01;11.50;;;10.40;;
46931;SDS011;32670;51.464;11.964;2023-02-07T11:34:37;11.07;;;10.07;;
46931;SDS011;32670;51.464;11.964;2023-02-07T11:39:44;10.87;;;9.87;;
46931;SDS011;32670;51.464;11.964;2023-02-07T11:42:12;10.13;;;9.23;;
46931;SDS011;32670;51.464;11.964;2023-02-07T11:44:42;11.03;;;9.87;;
46931;SDS011;32670;51.464;11.964;2023-02-07T11:47:11;10.37;;;9.47;;
46931;SDS011;32670;51.464;11.964;2023-02-07T11:49:41;10.60;;;9.50;;
46931;SDS011;32670;51.464;11.964;2023-02-07T11:52:09;11.17;;;10.07;;
46931;SDS011;32670;51.464;11.964;2023-02-07T11:54:35;11.07;;;9.97;;
46931;SDS011;32670;51.464;11.964;2023-02-07T11:59:30;10.10;;;9.17;;
46931;SDS011;32670;51.464;11.964;2023-02-07T12:01:58;10.57;;;9.57;;
46931;SDS011;32670;51.464;11.964;2023-02-07T12:04:34;10.50;;;9.50;;
46931;SDS011;32670;51.464;11.964;2023-02-07T12:07:06;9.77;;;8.87;;
46931;SDS011;32670;51.464;11.964;2023-02-07T12:09:42;9.97;;;9.07;;
46931;SDS011;32670;51.464;11.964;2023-02-07T12:15:31;10.57;;;9.40;;
46931;SDS011;32670;51.464;11.964;2023-02-07T12:20:23;9.87;;;8.97;;
46931;SDS011;32670;51.464;11.964;2023-02-07T12:23:53;9.80;;;8.90;;
46931;SDS011;32670;51.464;11.964;2023-02-07T12:25:55;10.37;;;9.37;;
46931;SDS011;32670;51.464;11.964;2023-02-07T12:28:32;9.67;;;8.77;;
46931;SDS011;32670;51.464;11.964;2023-02-07T12:34:11;9.40;;;8.50;;
46931;SDS011;32670;51.464;11.964;2023-02-07T12:36:45;9.70;;;8.77;;
46931;SDS011;32670;51.464;11.964;2023-02-07T12:39:25;9.50;;;8.60;;
46931;SDS011;32670;51.464;11.964;2023-02-07T12:42:05;9.73;;;8.83;;
46931;SDS011;32670;51.464;11.964;2023-02-07T12:44:48;10.10;;;9.20;;
46931;SDS011;32670;51.464;11.964;2023-02-07T12:47:37;8.50;;;7.80;;
46931;SDS011;32670;51.464;11.964;2023-02-07T12:55:54;9.13;;;8.23;;
46931;SDS011;32670;51.464;11.964;2023-02-07T12:58:41;8.67;;;7.87;;
46931;SDS011;32670;51.464;11.964;2023-02-07T13:01:35;9.70;;;8.67;;
46931;SDS011;32670;51.464;11.964;2023-02-07T13:04:31;9.93;;;9.03;;
46931;SDS011;32670;51.464;11.964;2023-02-07T13:12:41;10.27;;;9.37;;
46931;SDS011;32670;51.464;11.964;2023-02-07T13:15:19;10.00;;;9.10;;
46931;SDS011;32670;51.464;11.964;2023-02-07T13:17:57;9.90;;;9.00;;
46931;SDS011;32670;51.464;11.964;2023-02-07T13:20:45;9.63;;;8.73;;
46931;SDS011;32670;51.464;11.964;2023-02-07T13:23:30;10.13;;;9.03;;
46931;SDS011;32670;51.464;11.964;2023-02-07T13:25:59;9.67;;;8.83;;
46931;SDS011;32670;51.464;11.964;2023-02-07T13:31:09;8.87;;;8.07;;
46931;SDS011;32670;51.464;11.964;2023-02-07T13:33:39;9.23;;;8.40;;
46931;SDS011;32670;51.464;11.964;2023-02-07T13:44:21;9.20;;;8.30;;
46931;SDS011;32670;51.464;11.964;2023-02-07T13:49:52;9.27;;;8.47;;
46931;SDS011;32670;51.464;11.964;2023-02-07T13:52:32;9.17;;;8.27;;
46931;SDS011;32670;51.464;11.964;2023-02-07T13:57:47;8.77;;;7.97;;
46931;SDS011;32670;51.464;11.964;2023-02-07T14:00:36;8.67;;;7.87;;
46931;SDS011;32670;51.464;11.964;2023-02-07T14:03:32;9.93;;;9.03;;
46931;SDS011;32670;51.464;11.964;2023-02-07T14:06:16;9.30;;;8.50;;
46931;SDS011;32670;51.464;11.964;2023-02-07T14:08:56;9.00;;;8.20;;
46931;SDS011;32670;51.464;11.964;2023-02-07T14:11:43;9.20;;;8.30;;
46931;SDS011;32670;51.464;11.964;2023-02-07T14:14:21;8.93;;;8.13;;
46931;SDS011;32670;51.464;11.964;2023-02-07T14:17:07;10.00;;;9.10;;
46931;SDS011;32670;51.464;11.964;2023-02-07T14:22:18;9.40;;;8.57;;
46931;SDS011;32670;51.464;11.964;2023-02-07T14:27:25;9.53;;;8.63;;
46931;SDS011;32670;51.464;11.964;2023-02-07T14:29:55;9.00;;;8.20;;
46931;SDS011;32670;51.464;11.964;2023-02-07T14:35:05;9.40;;;8.60;;
46931;SDS011;32670;51.464;11.964;2023-02-07T14:37:51;9.77;;;8.97;;
46931;SDS011;32670;51.464;11.964;2023-02-07T14:40:21;9.03;;;8.27;;
46931;SDS011;32670;51.464;11.964;2023-02-07T14:43:02;8.87;;;8.07;;
46931;SDS011;32670;51.464;11.964;2023-02-07T14:45:33;9.27;;;8.40;;
46931;SDS011;32670;51.464;11.964;2023-02-07T14:48:00;9.47;;;8.57;;
46931;SDS011;32670;51.464;11.964;2023-02-07T14:50:28;9.43;;;8.53;;
46931;SDS011;32670;51.464;11.964;2023-02-07T14:52:58;9.73;;;8.83;;
46931;SDS011;32670;51.464;11.964;2023-02-07T14:55:41;9.03;;;8.23;;
46931;SDS011;32670;51.464;11.964;2023-02-07T14:58:19;9.00;;;8.20;;
46931;SDS011;32670;51.464;11.964;2023-02-07T15:00:49;8.80;;;8.00;;
46931;SDS011;32670;51.464;11.964;2023-02-07T15:03:21;8.97;;;8.17;;
46931;SDS011;32670;51.464;11.964;2023-02-07T15:05:53;9.33;;;8.47;;
46931;SDS011;32670;51.464;11.964;2023-02-07T15:08:23;8.67;;;7.97;;
46931;SDS011;32670;51.464;11.964;2023-02-07T15:10:53;9.00;;;8.20;;
46931;SDS011;32670;51.464;11.964;2023-02-07T15:13:30;8.80;;;8.00;;
46931;SDS011;32670;51.464;11.964;2023-02-07T15:16:03;8.37;;;7.67;;
46931;SDS011;32670;51.464;11.964;2023-02-07T15:18:37;8.90;;;8.00;;
46931;SDS011;32670;51.464;11.964;2023-02-07T15:21:09;8.00;;;7.33;;
46931;SDS011;32670;51.464;11.964;2023-02-07T15:23:48;8.07;;;7.37;;
46931;SDS011;32670;51.464;11.964;2023-02-07T15:26:22;8.20;;;7.50;;
46931;SDS011;32670;51.464;11.964;2023-02-07T15:28:54;8.20;;;7.50;;
46931;SDS011;32670;51.464;11.964;2023-02-07T15:31:25;8.73;;;7.93;;
46931;SDS011;32670;51.464;11.964;2023-02-07T15:33:52;8.37;;;7.67;;
46931;SDS011;32670;51.464;11.964;2023-02-07T15:36:30;7.83;;;7.13;;
46931;SDS011;32670;51.464;11.964;2023-02-07T15:39:01;8.07;;;7.33;;
46931;SDS011;32670;51.464;11.964;2023-02-07T15:41:30;8.30;;;7.50;;
46931;SDS011;32670;51.464;11.964;2023-02-07T15:54:47;8.23;;;7.53;;
46931;SDS011;32670;51.464;11.964;2023-02-07T15:57:34;7.83;;;7.13;;
46931;SDS011;32670;51.464;11.964;2023-02-07T16:00:08;8.00;;;7.30;;
46931;SDS011;32670;51.464;11.964;2023-02-07T16:02:44;7.73;;;7.03;;
46931;SDS011;32670;51.464;11.964;2023-02-07T16:05:20;8.10;;;7.40;;
46931;SDS011;32670;51.464;11.964;2023-02-07T16:07:48;8.03;;;7.20;;
46931;SDS011;32670;51.464;11.964;2023-02-07T16:11:09;7.53;;;6.83;;
46931;SDS011;32670;51.464;11.964;2023-02-07T16:15:36;7.67;;;6.97;;
46931;SDS011;32670;51.464;11.964;2023-02-07T16:18:03;7.83;;;7.23;;
46931;SDS011;32670;51.464;11.964;2023-02-07T16:20:30;8.13;;;7.43;;
46931;SDS011;32670;51.464;11.964;2023-02-07T16:22:59;7.40;;;6.77;;
46931;SDS011;32670;51.464;11.964;2023-02-07T16:25:28;7.73;;;7.03;;